Guysborough, Canada
Current Conditions -  °F | °C
As of 10:24 AM on Wednesday 28 Jan 2015 (Local Time) from CYPD Reporting Station
Moderate Fog Moderate Fog  
Wind Chill: 26°   Ceiling: 3100
Heat Index: 32°   Visibility: 0.12mi
Dew Point: 32°   Wind: 6mph
Humidity: 100%   Direction: 80°E
Pressure: 29.6"   Gusts: NA
Location:  45.4°N, 61.5°W
Report Text: CYPD 281424Z AUTO 08005KT 1/8SM FG SCT003 BKN031 OVC047 00/00 A2960 RMK PCPN 0.5MM PAST HR SLP028
Loading
Personal Weather Stations






























Interactive Weather Map New forecast layout! Learn more

10-Day Weather Forecast

Advertisements
Track Severe Weather on mobile